Ayshe — 9HKC9 — position and weather

sailwx.info

Track history (hours):
 
Tides and Currents Weather Stations Pressure Air Temp Water Temp Dewpoint Dewpoint Depression Visibility Wind Speed Wind Dir Waves Ship Positions

Ayshe

Last reported at 2017-Nov-17 23:43 UTC. Time now 2017-Nov-22 07:29 UTC.
Position N 37°56' E 015°31'.

Length 196 m; draft 7.4 m.

Type: Ship. MMSI: 249082000.

Date/timePositionNaut miles runAvg speedWind from/ knotsBaromVisibWave heightAir tempDewpointWater temp
2017-Nov-17 23:43N 37°56' E 015°31'627.7
2017-Nov-17 23:30N 38°01' E 015°33'1120.9
2017-Nov-17 23:00N 38°12' E 015°36'815.5
2017-Nov-17 22:31N 38°19' E 015°39'  
2017-Nov-14 20:38N 43°09' E 007°08'7422.5
2017-Nov-14 17:22N 43°46' E 008°36'1122.6
2017-Nov-14 16:52N 43°39' E 008°47'822.8
2017-Nov-14 16:30N 43°33' E 008°56'42524.1
2017-Nov-13 22:52N 38°28' E 015°28'1123.9
2017-Nov-13 22:25N 38°21' E 015°38'614.6
2017-Nov-13 22:00N 38°15' E 015°40'  
2017-Nov-10 22:42N 37°53' E 015°44'827.6
2017-Nov-10 22:25N 37°58' E 015°36'1023.3
2017-Nov-10 22:01N 38°07' E 015°34'918.0
2017-Nov-10 21:30N 38°15' E 015°39'917.9
2017-Nov-10 21:01N 38°23' E 015°34'  
Track history (hours):
 
Tides and Currents Weather Stations Pressure Air Temp Water Temp Dewpoint Dewpoint Depression Visibility Wind Speed Wind Dir Waves Ship Positions

Ayshe

Last reported at 2017-Nov-17 23:43 UTC. Time now 2017-Nov-22 07:29 UTC.
Position N 37°56' E 015°31'.

Length 196 m; draft 7.4 m.

Type: Ship. MMSI: 249082000.

Date/timePositionNaut miles runAvg speedWind from/ knotsBaromVisibWave heightAir tempDewpointWater temp
2017-Nov-17 23:43N 37°56' E 015°31'627.7
2017-Nov-17 23:30N 38°01' E 015°33'1120.9
2017-Nov-17 23:00N 38°12' E 015°36'815.5
2017-Nov-17 22:31N 38°19' E 015°39'  
2017-Nov-14 20:38N 43°09' E 007°08'7422.5
2017-Nov-14 17:22N 43°46' E 008°36'1122.6
2017-Nov-14 16:52N 43°39' E 008°47'822.8
2017-Nov-14 16:30N 43°33' E 008°56'42524.1
2017-Nov-13 22:52N 38°28' E 015°28'1123.9
2017-Nov-13 22:25N 38°21' E 015°38'614.6
2017-Nov-13 22:00N 38°15' E 015°40'  
2017-Nov-10 22:42N 37°53' E 015°44'827.6
2017-Nov-10 22:25N 37°58' E 015°36'1023.3
2017-Nov-10 22:01N 38°07' E 015°34'918.0
2017-Nov-10 21:30N 38°15' E 015°39'917.9
2017-Nov-10 21:01N 38°23' E 015°34'  

Dump ship's entire track history